createdAt,value
2022-12-24T00:03:29.970Z,2.67
2022-12-24T00:09:33.638Z,2.95
2022-12-24T00:15:38.422Z,3.53
2022-12-24T00:21:41.784Z,3.05
2022-12-24T00:27:45.483Z,2.83
2022-12-24T00:33:50.438Z,2.13
2022-12-24T00:39:53.829Z,2.90
2022-12-24T00:45:57.563Z,1.90
2022-12-24T00:52:03.190Z,2.22
2022-12-24T00:58:06.578Z,1.95
2022-12-24T01:04:27.507Z,2.40
2022-12-24T01:10:32.474Z,3.75
2022-12-24T01:16:36.121Z,3.78
2022-12-24T01:22:39.626Z,3.85
2022-12-24T01:28:44.547Z,3.20
2022-12-24T01:34:48.193Z,3.15
2022-12-24T01:41:09.428Z,4.32
2022-12-24T01:47:16.431Z,3.00
2022-12-24T01:53:19.993Z,3.10
2022-12-24T01:59:24.026Z,3.22
2022-12-24T02:05:30.555Z,2.20
2022-12-24T02:11:33.937Z,2.70
2022-12-24T02:17:42.004Z,1.95
2022-12-24T02:23:55.276Z,2.63
2022-12-24T02:30:05.616Z,2.20
2022-12-24T02:36:13.410Z,2.30
2022-12-24T02:42:19.241Z,2.65
2022-12-24T02:48:24.417Z,2.72
2022-12-24T02:54:28.214Z,2.70
2022-12-24T03:00:37.390Z,2.65
2022-12-24T03:06:45.509Z,2.25
2022-12-24T03:12:51.197Z,3.15
2022-12-24T03:18:55.591Z,3.10
2022-12-24T03:25:00.376Z,4.03
2022-12-24T03:31:05.246Z,3.42
2022-12-24T03:37:08.860Z,3.95
2022-12-24T03:43:13.773Z,2.50
2022-12-24T03:49:17.397Z,3.80
2022-12-24T03:55:20.784Z,3.78
2022-12-24T04:01:25.815Z,3.88
2022-12-24T04:07:29.305Z,3.90
2022-12-24T04:13:32.855Z,3.45
2022-12-24T04:19:37.870Z,3.40
2022-12-24T04:25:41.605Z,2.90
2022-12-24T04:31:45.081Z,3.17
2022-12-24T04:37:49.900Z,2.28
2022-12-24T04:43:53.786Z,3.45
2022-12-24T04:49:57.228Z,3.20
2022-12-24T04:56:02.389Z,2.75
2022-12-24T05:02:06.011Z,2.95
2022-12-24T05:08:09.867Z,3.85
2022-12-24T05:14:14.650Z,3.70
2022-12-24T05:20:18.246Z,3.42
2022-12-24T05:26:25.394Z,3.30
2022-12-24T05:32:30.167Z,3.30
2022-12-24T05:38:33.584Z,3.25
2022-12-24T05:44:38.678Z,3.70
2022-12-24T05:50:43.699Z,4.00
2022-12-24T05:56:47.135Z,3.80
2022-12-24T06:02:50.644Z,4.78
2022-12-24T06:08:56.704Z,3.67
2022-12-24T06:15:00.174Z,3.78
2022-12-24T06:21:04.263Z,4.70
2022-12-24T06:27:09.091Z,3.85
2022-12-24T06:33:12.445Z,5.10
2022-12-24T06:39:15.853Z,5.38
2022-12-24T06:45:20.662Z,3.88
2022-12-24T06:51:24.493Z,4.05
2022-12-24T06:57:27.889Z,2.75
2022-12-24T07:03:32.780Z,4.07
2022-12-24T07:09:36.601Z,4.15
2022-12-24T07:15:40.118Z,3.15
2022-12-24T07:21:45.034Z,3.35
2022-12-24T07:27:48.426Z,3.42
2022-12-24T07:33:51.818Z,4.70
2022-12-24T07:39:56.568Z,4.88
2022-12-24T07:46:00.011Z,6.63
2022-12-24T07:52:03.438Z,3.75
2022-12-24T07:58:08.222Z,4.30
2022-12-24T08:04:11.841Z,4.43
2022-12-24T08:10:15.263Z,4.40
2022-12-24T08:16:20.123Z,5.35
2022-12-24T08:22:23.567Z,4.60
2022-12-24T08:28:27.040Z,4.32
2022-12-24T08:34:31.981Z,2.17
2022-12-24T08:40:35.457Z,4.03
2022-12-24T08:46:39.238Z,4.95
2022-12-24T08:52:44.045Z,4.82
2022-12-24T08:58:48.859Z,5.57
2022-12-24T09:04:52.282Z,4.20
2022-12-24T09:10:57.350Z,4.47
2022-12-24T09:17:01.206Z,4.63
2022-12-24T09:23:04.869Z,3.70
2022-12-24T09:29:09.886Z,3.88
2022-12-24T09:35:13.550Z,4.40
2022-12-24T09:41:17.811Z,5.13
2022-12-24T09:47:26.987Z,5.40
2022-12-24T09:53:35.557Z,4.93
2022-12-24T09:59:42.861Z,4.68
2022-12-24T10:05:50.961Z,4.63
2022-12-24T10:11:58.365Z,4.15
2022-12-24T10:18:19.943Z,5.07
2022-12-24T10:24:26.263Z,5.25
2022-12-24T10:30:30.073Z,5.53
2022-12-24T10:36:34.059Z,6.22
2022-12-24T10:42:50.334Z,5.75
2022-12-24T10:48:56.872Z,4.95
2022-12-24T10:55:11.155Z,5.95
2022-12-24T11:01:16.047Z,5.05
2022-12-24T11:07:21.351Z,5.22
2022-12-24T11:13:37.499Z,5.47
2022-12-24T11:19:42.949Z,6.53
2022-12-24T11:25:49.834Z,6.45
2022-12-24T11:31:54.009Z,5.47
2022-12-24T11:38:11.443Z,5.80
2022-12-24T11:44:14.915Z,4.55
2022-12-24T11:50:26.493Z,5.05
2022-12-24T11:56:34.211Z,4.88
2022-12-24T12:02:40.055Z,3.85
2022-12-24T12:08:44.138Z,4.70
2022-12-24T12:14:52.043Z,4.40
2022-12-24T12:20:58.337Z,5.95
2022-12-24T12:27:06.265Z,5.77
2022-12-24T12:33:16.726Z,4.70
2022-12-24T12:39:20.369Z,5.35
2022-12-24T12:45:31.071Z,5.07
2022-12-24T12:51:39.947Z,5.47
2022-12-24T12:57:43.396Z,5.55
2022-12-24T13:04:05.756Z,5.15
2022-12-24T13:10:22.168Z,4.82
2022-12-24T13:16:46.300Z,4.75
2022-12-24T13:22:50.883Z,4.88
2022-12-24T13:28:55.773Z,4.45
2022-12-24T13:35:00.407Z,5.95
2022-12-24T13:41:22.725Z,5.28
2022-12-24T13:47:32.291Z,5.43
2022-12-24T13:53:40.579Z,5.15
2022-12-24T13:59:44.247Z,4.70
2022-12-24T14:05:50.546Z,5.60
2022-12-24T14:12:16.578Z,4.25
2022-12-24T14:18:20.659Z,5.78
2022-12-24T14:24:26.708Z,5.85
2022-12-24T14:30:30.737Z,4.93
2022-12-24T14:36:34.249Z,4.50
2022-12-24T14:42:43.373Z,4.85
2022-12-24T14:48:50.603Z,4.55
2022-12-24T14:54:54.748Z,4.25
2022-12-24T15:01:00.617Z,5.13
2022-12-24T15:07:06.241Z,4.82
2022-12-24T15:13:11.308Z,5.97
2022-12-24T15:19:22.109Z,4.72
2022-12-24T15:25:26.516Z,4.20
2022-12-24T15:31:31.318Z,5.32
2022-12-24T15:37:38.299Z,5.32
2022-12-24T15:43:42.426Z,6.00
2022-12-24T15:49:48.537Z,10.65
2022-12-24T15:56:04.193Z,6.30
2022-12-24T16:02:29.951Z,5.32
2022-12-24T16:08:34.666Z,5.82
2022-12-24T16:14:41.522Z,5.53
2022-12-24T16:20:48.468Z,7.93
2022-12-24T16:26:53.402Z,8.50
2022-12-24T16:32:58.207Z,9.25
2022-12-24T16:39:19.109Z,9.45
2022-12-24T16:45:22.681Z,10.07
2022-12-24T16:51:27.433Z,8.15
2022-12-24T16:57:30.950Z,7.75
2022-12-24T17:03:34.548Z,8.30
2022-12-24T17:09:39.799Z,7.72
2022-12-24T17:15:43.549Z,6.65
2022-12-24T17:21:47.397Z,6.30
2022-12-24T17:27:52.152Z,5.22
2022-12-24T17:33:55.678Z,7.03
2022-12-24T17:39:59.380Z,7.38
2022-12-24T17:46:07.362Z,7.70
2022-12-24T17:52:11.576Z,6.68
2022-12-24T17:58:15.421Z,7.30
2022-12-24T18:04:20.227Z,6.72
2022-12-24T18:10:23.633Z,7.03
2022-12-24T18:16:28.064Z,6.90
2022-12-24T18:22:32.872Z,6.80
2022-12-24T18:28:36.584Z,7.90
2022-12-24T18:34:40.151Z,7.22
2022-12-24T18:40:44.927Z,6.10
2022-12-24T18:46:48.568Z,6.93
2022-12-24T18:52:52.040Z,12.10
2022-12-24T18:58:57.440Z,12.73
2022-12-24T19:05:00.861Z,7.40
2022-12-24T19:11:04.756Z,6.85
2022-12-24T19:17:09.641Z,5.65
2022-12-24T19:23:13.026Z,5.53
2022-12-24T19:29:16.450Z,5.60
2022-12-24T19:35:21.244Z,4.88
2022-12-24T19:41:25.766Z,5.97
2022-12-24T19:47:29.628Z,10.13
2022-12-24T19:53:34.514Z,6.88
2022-12-24T19:59:39.424Z,5.95
2022-12-24T20:05:42.946Z,6.22
2022-12-24T20:11:47.665Z,5.13
2022-12-24T20:17:54.027Z,6.25
2022-12-24T20:23:57.683Z,5.30
2022-12-24T20:30:02.774Z,7.10
2022-12-24T20:36:06.532Z,5.55
2022-12-24T20:42:09.935Z,4.80
2022-12-24T20:48:14.677Z,5.63
2022-12-24T20:54:18.635Z,5.78
2022-12-24T21:00:22.775Z,5.32
2022-12-24T21:06:27.688Z,6.10
2022-12-24T21:12:48.510Z,5.68
2022-12-24T21:18:51.967Z,5.47
2022-12-24T21:24:56.768Z,5.65
2022-12-24T21:31:00.321Z,6.68
2022-12-24T21:37:03.748Z,5.00
2022-12-24T21:43:08.533Z,5.85
2022-12-24T21:49:30.241Z,5.82
2022-12-24T21:55:33.850Z,5.50
2022-12-24T22:01:38.681Z,5.95
2022-12-24T22:08:00.665Z,8.43
2022-12-24T22:14:04.136Z,6.28
2022-12-24T22:20:10.491Z,5.63
2022-12-24T22:26:14.128Z,4.43
2022-12-24T22:32:17.520Z,3.67
2022-12-24T22:38:22.291Z,3.85
2022-12-24T22:44:25.814Z,2.97
2022-12-24T22:50:29.239Z,2.60
2022-12-24T22:56:40.484Z,2.67
2022-12-24T23:02:44.684Z,4.22
2022-12-24T23:08:48.374Z,3.78
2022-12-24T23:14:59.960Z,3.90
2022-12-24T23:21:06.229Z,4.45
2022-12-24T23:27:09.933Z,3.35
2022-12-24T23:33:14.883Z,4.90
2022-12-24T23:39:18.296Z,3.90
2022-12-24T23:45:21.713Z,4.05
2022-12-24T23:51:29.268Z,3.35
2022-12-24T23:57:32.837Z,4.60
